Terminal Aerodrome Forecast
Issued by NWS Jackson, KY

Home | Current Version | Previous Version | Text Only | Print | Product List | Glossary On
Versions: 1 2 3 4 5 6 7 8 9 10 11 12 13 14 15 16 17 18 19
000
FTUS43 KJKL 270748 CCB
TAFJKL
TAF COR
KJKL 270748Z 2708/2806 00000KT 4SM BR SCT002
      TEMPO 2708/2712 00000KT 1SM BR VV002
     FM271300 VRB04KT P6SM SCT200=

USA.gov is the U.S. government's official web portal to all federal, state and local government web resources and services.